createdAt,value
2023-07-25T00:01:49.946Z,18.30
2023-07-25T00:04:18.558Z,18.20
2023-07-25T00:06:46.899Z,18.20
2023-07-25T00:09:16.602Z,18.10
2023-07-25T00:11:47.639Z,17.90
2023-07-25T00:14:16.840Z,17.80
2023-07-25T00:16:45.451Z,17.80
2023-07-25T00:19:14.054Z,18.00
2023-07-25T00:21:42.610Z,18.00
2023-07-25T00:24:10.961Z,17.90
2023-07-25T00:26:39.503Z,17.80
2023-07-25T00:29:09.184Z,17.70
2023-07-25T00:31:37.500Z,17.60
2023-07-25T00:34:07.831Z,17.50
2023-07-25T00:36:36.342Z,17.50
2023-07-25T00:39:04.804Z,17.70
2023-07-25T00:41:33.506Z,17.80
2023-07-25T00:44:02.502Z,17.90
2023-07-25T00:46:32.543Z,17.80
2023-07-25T00:49:01.119Z,17.80
2023-07-25T00:51:30.675Z,17.70
2023-07-25T00:53:59.484Z,17.70
2023-07-25T00:56:29.096Z,17.70
2023-07-25T00:58:57.847Z,17.60
2023-07-25T01:01:29.837Z,17.40
2023-07-25T01:04:00.353Z,17.30
2023-07-25T01:06:31.930Z,17.30
2023-07-25T01:09:00.359Z,17.20
2023-07-25T01:11:29.310Z,17.20
2023-07-25T01:13:57.686Z,17.30
2023-07-25T01:16:28.639Z,17.30
2023-07-25T01:18:59.371Z,17.30
2023-07-25T01:21:28.001Z,17.50
2023-07-25T01:24:03.403Z,17.60
2023-07-25T01:26:31.746Z,17.50
2023-07-25T01:29:00.433Z,17.60
2023-07-25T01:31:30.012Z,17.50
2023-07-25T01:33:58.730Z,17.40
2023-07-25T01:36:27.096Z,17.40
2023-07-25T01:38:58.602Z,17.60
2023-07-25T01:41:28.676Z,17.40
2023-07-25T01:43:57.585Z,17.30
2023-07-25T01:46:26.645Z,17.30
2023-07-25T01:48:55.215Z,17.20
2023-07-25T01:51:23.556Z,17.20
2023-07-25T01:53:52.745Z,17.10
2023-07-25T01:56:21.311Z,17.10
2023-07-25T01:58:52.715Z,17.30
2023-07-25T02:01:28.197Z,17.10
2023-07-25T02:03:57.079Z,17.20
2023-07-25T02:06:25.686Z,17.10
2023-07-25T02:08:54.199Z,17.20
2023-07-25T02:11:23.159Z,17.40
2023-07-25T02:13:56.890Z,17.40
2023-07-25T02:16:26.234Z,17.30
2023-07-25T02:18:56.212Z,17.40
2023-07-25T02:21:24.629Z,17.20
2023-07-25T02:23:53.766Z,17.10
2023-07-25T02:26:22.144Z,17.10
2023-07-25T02:28:50.785Z,17.20
2023-07-25T02:31:20.474Z,17.20
2023-07-25T02:33:49.324Z,17.20
2023-07-25T02:36:17.753Z,17.00
2023-07-25T02:38:47.780Z,17.00
2023-07-25T02:41:16.415Z,17.10
2023-07-25T02:43:44.694Z,17.10
2023-07-25T02:46:12.801Z,17.10
2023-07-25T02:48:44.854Z,17.00
2023-07-25T02:51:13.265Z,16.90
2023-07-25T02:53:41.845Z,16.70
2023-07-25T02:56:12.310Z,16.80
2023-07-25T02:58:42.020Z,16.70
2023-07-25T03:01:10.558Z,16.80
2023-07-25T03:03:38.935Z,16.80
2023-07-25T03:06:08.502Z,16.80
2023-07-25T03:08:37.001Z,16.70
2023-07-25T03:11:05.398Z,16.80
2023-07-25T03:13:33.932Z,17.00
2023-07-25T03:16:02.889Z,17.00
2023-07-25T03:18:31.369Z,17.00
2023-07-25T03:21:00.129Z,16.90
2023-07-25T03:23:30.978Z,16.90
2023-07-25T03:25:59.861Z,16.60
2023-07-25T03:28:28.399Z,16.40
2023-07-25T03:30:57.530Z,16.20
2023-07-25T03:33:26.100Z,16.00
2023-07-25T03:35:54.678Z,16.00
2023-07-25T03:38:23.553Z,15.80
2023-07-25T03:40:53.911Z,15.50
2023-07-25T03:43:23.214Z,15.30
2023-07-25T03:45:52.854Z,15.40
2023-07-25T03:48:21.784Z,15.60
2023-07-25T03:50:52.712Z,15.30
2023-07-25T03:53:21.602Z,15.00
2023-07-25T03:55:50.193Z,15.10
2023-07-25T03:58:20.098Z,15.30
2023-07-25T04:00:48.614Z,15.30
2023-07-25T04:03:17.726Z,15.20
2023-07-25T04:05:46.479Z,15.10
2023-07-25T04:08:17.977Z,15.20
2023-07-25T04:10:47.520Z,15.10
2023-07-25T04:13:16.289Z,15.10
2023-07-25T04:15:46.382Z,15.20
2023-07-25T04:18:17.140Z,15.20
2023-07-25T04:20:46.524Z,15.20
2023-07-25T04:23:16.831Z,15.30
2023-07-25T04:25:45.310Z,15.30
2023-07-25T04:28:13.910Z,15.40
2023-07-25T04:30:43.364Z,15.40
2023-07-25T04:33:17.236Z,15.30
2023-07-25T04:35:47.561Z,15.50
2023-07-25T04:38:19.158Z,15.50
2023-07-25T04:40:48.736Z,15.50
2023-07-25T04:43:19.229Z,15.50
2023-07-25T04:45:54.249Z,15.60
2023-07-25T04:48:24.894Z,15.60
2023-07-25T04:50:53.067Z,15.50
2023-07-25T04:53:21.565Z,15.40
2023-07-25T04:55:50.150Z,15.40
2023-07-25T04:58:18.979Z,15.70
2023-07-25T05:00:47.498Z,15.80
2023-07-25T05:03:16.482Z,15.90
2023-07-25T05:05:46.296Z,15.80
2023-07-25T05:08:15.497Z,16.00
2023-07-25T05:10:44.129Z,15.90
2023-07-25T05:13:15.430Z,16.00
2023-07-25T05:15:44.355Z,16.00
2023-07-25T05:18:12.951Z,16.00
2023-07-25T05:20:43.373Z,16.00
2023-07-25T05:23:13.866Z,16.20
2023-07-25T05:25:42.698Z,16.30
2023-07-25T05:28:11.440Z,16.20
2023-07-25T05:30:44.226Z,16.20
2023-07-25T05:33:12.687Z,16.20
2023-07-25T05:35:41.268Z,16.10
2023-07-25T05:38:10.027Z,16.00
2023-07-25T05:40:40.150Z,16.00
2023-07-25T05:43:17.858Z,16.00
2023-07-25T05:45:49.019Z,16.00
2023-07-25T05:48:20.305Z,15.90
2023-07-25T05:50:53.901Z,15.90
2023-07-25T05:53:22.735Z,15.90
2023-07-25T05:55:53.235Z,15.80
2023-07-25T05:58:22.184Z,15.80
2023-07-25T06:00:52.115Z,15.90
2023-07-25T06:03:21.484Z,15.80
2023-07-25T06:05:49.913Z,15.90
2023-07-25T06:08:21.238Z,15.70
2023-07-25T06:10:52.508Z,15.70
2023-07-25T06:13:23.124Z,15.50
2023-07-25T06:15:51.993Z,15.50
2023-07-25T06:18:22.908Z,15.70
2023-07-25T06:20:51.250Z,15.70
2023-07-25T06:23:21.288Z,15.60
2023-07-25T06:25:50.807Z,15.70
2023-07-25T06:28:31.729Z,15.80
2023-07-25T06:31:01.868Z,15.70
2023-07-25T06:33:36.126Z,15.70
2023-07-25T06:36:05.641Z,15.50
2023-07-25T06:38:34.315Z,15.50
2023-07-25T06:41:03.938Z,15.80
2023-07-25T06:43:33.704Z,15.90
2023-07-25T06:46:03.314Z,15.90
2023-07-25T06:48:32.236Z,15.90
2023-07-25T06:51:01.918Z,15.90
2023-07-25T06:53:32.273Z,15.90
2023-07-25T06:56:01.462Z,15.70
2023-07-25T06:58:30.097Z,15.60
2023-07-25T07:01:00.244Z,15.60
2023-07-25T07:03:32.003Z,15.80
2023-07-25T07:06:02.520Z,15.80
2023-07-25T07:11:09.338Z,15.80
2023-07-25T07:13:39.630Z,15.70
2023-07-25T07:16:12.100Z,15.60
2023-07-25T07:18:41.304Z,15.40
2023-07-25T07:21:09.831Z,15.50
2023-07-25T07:23:38.134Z,15.40
2023-07-25T07:26:06.535Z,15.00
2023-07-25T07:28:34.963Z,14.90
2023-07-25T07:31:03.250Z,15.00
2023-07-25T07:33:33.660Z,14.90
2023-07-25T07:36:02.199Z,14.70
2023-07-25T07:38:30.673Z,14.60
2023-07-25T07:40:59.206Z,14.30
2023-07-25T07:43:27.546Z,14.20
2023-07-25T07:45:55.800Z,14.10
2023-07-25T07:48:24.183Z,14.00
2023-07-25T07:50:53.536Z,13.90
2023-07-25T07:53:21.583Z,13.70
2023-07-25T07:55:49.653Z,13.60
2023-07-25T07:58:18.232Z,13.50
2023-07-25T08:00:46.343Z,13.60
2023-07-25T08:03:15.569Z,13.50
2023-07-25T08:05:44.272Z,13.50
2023-07-25T08:08:15.433Z,13.40
2023-07-25T08:10:44.666Z,13.40
2023-07-25T08:13:12.987Z,13.30
2023-07-25T08:15:41.208Z,13.30
2023-07-25T08:18:09.516Z,13.30
2023-07-25T08:20:39.209Z,13.40
2023-07-25T08:23:07.675Z,13.40
2023-07-25T08:25:39.976Z,13.50
2023-07-25T08:28:08.613Z,13.70
2023-07-25T08:30:39.723Z,13.90
2023-07-25T08:33:08.031Z,14.00
2023-07-25T08:35:36.184Z,14.10
2023-07-25T08:38:04.319Z,14.00
2023-07-25T08:40:32.544Z,14.00
2023-07-25T08:43:09.110Z,13.80
2023-07-25T08:45:38.395Z,13.80
2023-07-25T08:48:10.559Z,14.00
2023-07-25T08:50:40.243Z,13.90
2023-07-25T08:53:13.662Z,13.80
2023-07-25T08:55:42.346Z,13.90
2023-07-25T08:58:12.592Z,14.20
2023-07-25T09:00:41.733Z,14.60
2023-07-25T09:03:10.609Z,14.40
2023-07-25T09:05:39.394Z,14.50
2023-07-25T09:08:07.599Z,14.30
2023-07-25T09:10:36.738Z,14.60
2023-07-25T09:13:05.049Z,14.50
2023-07-25T09:15:34.583Z,14.60
2023-07-25T09:18:02.951Z,14.50
2023-07-25T09:20:31.264Z,14.50
2023-07-25T09:23:03.809Z,14.40
2023-07-25T09:25:32.216Z,14.50
2023-07-25T09:28:01.112Z,14.60
2023-07-25T09:30:30.410Z,14.70
2023-07-25T09:33:00.099Z,14.90
2023-07-25T09:35:28.205Z,15.20
2023-07-25T09:37:57.610Z,15.40
2023-07-25T09:40:30.578Z,15.40
2023-07-25T09:42:58.877Z,15.00
2023-07-25T09:45:26.991Z,15.00
2023-07-25T09:47:55.490Z,15.00
2023-07-25T09:50:28.493Z,15.60
2023-07-25T09:52:56.935Z,15.50
2023-07-25T09:55:25.636Z,15.60
2023-07-25T09:57:54.640Z,15.30
2023-07-25T10:00:23.510Z,15.20
2023-07-25T10:02:55.531Z,15.40
2023-07-25T10:05:24.332Z,15.50
2023-07-25T10:07:57.957Z,16.00
2023-07-25T10:10:27.595Z,15.80
2023-07-25T10:12:59.305Z,15.90
2023-07-25T10:15:28.201Z,16.00
2023-07-25T10:18:04.652Z,16.20
2023-07-25T10:20:33.080Z,15.90
2023-07-25T10:23:13.134Z,16.60
2023-07-25T10:25:41.720Z,16.40
2023-07-25T10:28:10.491Z,16.40
2023-07-25T10:30:45.227Z,16.40
2023-07-25T10:33:15.257Z,16.30
2023-07-25T10:35:54.149Z,16.30
2023-07-25T10:38:31.782Z,16.30
2023-07-25T10:41:02.630Z,16.10
2023-07-25T10:43:54.010Z,16.00
2023-07-25T10:46:23.992Z,16.10
2023-07-25T10:48:53.653Z,15.70
2023-07-25T10:51:23.073Z,15.40
2023-07-25T10:54:13.882Z,15.50
2023-07-25T10:57:17.406Z,15.50
2023-07-25T11:00:00.012Z,15.60
2023-07-25T11:02:33.311Z,16.00
2023-07-25T11:05:24.548Z,16.30
2023-07-25T11:07:54.886Z,16.00
2023-07-25T11:10:26.412Z,16.10
2023-07-25T11:12:56.485Z,16.40
2023-07-25T11:15:40.824Z,16.60
2023-07-25T11:18:13.774Z,16.90
2023-07-25T11:20:42.311Z,17.10
2023-07-25T11:23:10.970Z,17.00
2023-07-25T11:25:40.608Z,17.70
2023-07-25T11:28:08.749Z,17.50
2023-07-25T11:30:45.392Z,17.70
2023-07-25T11:33:13.859Z,17.40
2023-07-25T11:35:42.458Z,17.60
2023-07-25T11:38:12.956Z,17.40
2023-07-25T11:40:43.959Z,17.20
2023-07-25T11:43:16.446Z,17.30
2023-07-25T11:45:46.672Z,17.60
2023-07-25T11:48:17.424Z,17.60
2023-07-25T11:50:50.039Z,17.50
2023-07-25T11:53:20.142Z,17.50
2023-07-25T11:55:53.758Z,17.20
2023-07-25T11:58:23.180Z,17.40
2023-07-25T12:00:55.975Z,17.70
2023-07-25T12:03:25.720Z,17.90
2023-07-25T12:05:56.278Z,18.10
2023-07-25T12:08:34.756Z,18.20
2023-07-25T12:11:09.182Z,18.40
2023-07-25T12:13:45.703Z,18.50
2023-07-25T12:16:27.104Z,18.60
2023-07-25T12:18:57.801Z,18.60
2023-07-25T12:21:28.925Z,18.80
2023-07-25T12:24:02.804Z,18.80
2023-07-25T12:26:45.893Z,18.60
2023-07-25T12:29:17.699Z,18.70
2023-07-25T12:31:46.329Z,18.40
2023-07-25T12:34:20.300Z,18.10
2023-07-25T12:36:49.104Z,17.90
2023-07-25T12:39:18.184Z,17.80
2023-07-25T12:41:48.143Z,18.10
2023-07-25T12:44:16.646Z,18.00
2023-07-25T12:46:45.181Z,18.00
2023-07-25T12:49:14.539Z,18.10
2023-07-25T12:51:42.954Z,18.30
2023-07-25T12:54:11.214Z,18.70
2023-07-25T12:56:42.360Z,18.70
2023-07-25T12:59:11.941Z,19.00
2023-07-25T13:01:40.354Z,19.10
2023-07-25T13:04:08.755Z,19.10
2023-07-25T13:06:37.174Z,18.70
2023-07-25T13:09:05.571Z,18.30
2023-07-25T13:11:34.121Z,18.40
2023-07-25T13:14:04.728Z,18.20
2023-07-25T13:16:36.108Z,18.00
2023-07-25T13:19:04.973Z,18.00
2023-07-25T13:21:33.413Z,18.10
2023-07-25T13:24:04.589Z,18.30
2023-07-25T13:26:35.428Z,18.70
2023-07-25T13:29:06.263Z,19.10
2023-07-25T13:31:35.841Z,19.30
2023-07-25T13:34:04.545Z,19.70
2023-07-25T13:36:32.746Z,20.00
2023-07-25T13:39:02.154Z,20.00
2023-07-25T13:41:30.392Z,20.30
2023-07-25T13:43:59.191Z,20.30
2023-07-25T13:46:27.401Z,20.20
2023-07-25T13:48:57.263Z,19.90
2023-07-25T13:51:25.803Z,20.10
2023-07-25T13:53:54.753Z,19.90
2023-07-25T13:56:23.031Z,20.10
2023-07-25T13:58:51.197Z,20.00
2023-07-25T14:01:19.444Z,20.20
2023-07-25T14:03:47.923Z,20.70
2023-07-25T14:06:18.390Z,20.00
2023-07-25T14:08:47.244Z,20.10
2023-07-25T14:11:17.679Z,20.00
2023-07-25T14:13:46.143Z,20.10
2023-07-25T14:16:14.752Z,19.80
2023-07-25T14:18:43.009Z,19.90
2023-07-25T14:21:11.405Z,20.00
2023-07-25T14:23:41.442Z,20.00
2023-07-25T14:26:12.300Z,20.00
2023-07-25T14:28:43.701Z,20.20
2023-07-25T14:31:11.832Z,20.20
2023-07-25T14:33:40.402Z,20.10
2023-07-25T14:36:09.806Z,20.10
2023-07-25T14:38:39.728Z,20.10
2023-07-25T14:41:09.492Z,19.90
2023-07-25T14:43:40.275Z,20.00
2023-07-25T14:46:08.646Z,19.80
2023-07-25T14:48:37.499Z,19.70
2023-07-25T14:51:05.988Z,19.70
2023-07-25T14:53:37.377Z,19.60
2023-07-25T14:56:09.921Z,19.90
2023-07-25T14:58:38.954Z,19.60
2023-07-25T15:01:08.610Z,19.50
2023-07-25T15:03:39.443Z,19.70
2023-07-25T15:06:09.399Z,19.70
2023-07-25T15:08:39.876Z,19.40
2023-07-25T15:11:09.767Z,19.30
2023-07-25T15:13:38.275Z,19.30
2023-07-25T15:16:08.577Z,19.20
2023-07-25T15:18:37.199Z,19.20
2023-07-25T15:21:06.172Z,19.30
2023-07-25T15:23:34.676Z,19.30
2023-07-25T15:26:03.052Z,19.50
2023-07-25T15:28:32.849Z,19.40
2023-07-25T15:31:01.046Z,19.60
2023-07-25T15:33:29.430Z,19.70
2023-07-25T15:35:58.828Z,19.70
2023-07-25T15:38:27.299Z,19.70
2023-07-25T15:40:55.760Z,19.70
2023-07-25T15:43:24.046Z,19.70
2023-07-25T15:45:56.415Z,19.60
2023-07-25T15:48:25.020Z,19.70
2023-07-25T15:50:53.567Z,19.70
2023-07-25T15:53:21.966Z,19.60
2023-07-25T15:55:50.338Z,19.60
2023-07-25T15:58:18.880Z,19.60
2023-07-25T16:00:47.918Z,19.70
2023-07-25T16:03:18.351Z,19.50
2023-07-25T16:05:46.945Z,19.30
2023-07-25T16:08:15.645Z,19.30
2023-07-25T16:10:46.716Z,19.20
2023-07-25T16:13:17.065Z,19.20
2023-07-25T16:15:47.699Z,19.10
2023-07-25T16:18:26.360Z,18.90
2023-07-25T16:20:54.608Z,18.80
2023-07-25T16:23:22.687Z,18.70
2023-07-25T16:25:52.457Z,18.80
2023-07-25T16:28:20.771Z,18.70
2023-07-25T16:30:49.102Z,18.70
2023-07-25T16:33:18.859Z,18.70
2023-07-25T16:35:46.951Z,18.50
2023-07-25T16:38:15.097Z,18.50
2023-07-25T16:40:44.516Z,18.50
2023-07-25T16:43:14.172Z,18.20
2023-07-25T16:45:42.636Z,18.10
2023-07-25T16:48:10.751Z,18.00
2023-07-25T16:50:40.466Z,18.00
2023-07-25T16:53:08.779Z,18.00
2023-07-25T16:55:37.131Z,18.00
2023-07-25T16:58:05.712Z,17.90
2023-07-25T17:00:34.438Z,17.70
2023-07-25T17:03:02.979Z,17.70
2023-07-25T17:05:31.151Z,17.60
2023-07-25T17:08:01.338Z,17.60
2023-07-25T17:10:32.738Z,17.60
2023-07-25T17:13:01.171Z,17.70
2023-07-25T17:15:29.123Z,17.50
2023-07-25T17:17:57.530Z,17.50
2023-07-25T17:20:27.351Z,17.50
2023-07-25T17:22:58.013Z,17.50
2023-07-25T17:25:27.991Z,17.60
2023-07-25T17:27:56.596Z,17.50
2023-07-25T17:30:24.844Z,17.50
2023-07-25T17:32:54.980Z,17.40
2023-07-25T17:35:35.475Z,17.30
2023-07-25T17:38:09.300Z,17.40
2023-07-25T17:40:39.538Z,17.40
2023-07-25T17:43:08.115Z,17.30
2023-07-25T17:45:36.458Z,17.20
2023-07-25T17:48:04.988Z,17.20
2023-07-25T17:50:33.488Z,17.20
2023-07-25T17:53:02.294Z,17.20
2023-07-25T17:55:30.522Z,17.10
2023-07-25T17:58:03.522Z,17.20
2023-07-25T18:00:32.542Z,17.20
2023-07-25T18:03:01.316Z,17.20
2023-07-25T18:05:32.291Z,17.10
2023-07-25T18:08:00.668Z,17.10
2023-07-25T18:10:30.310Z,17.10
2023-07-25T18:13:00.263Z,16.90
2023-07-25T18:15:30.518Z,17.00
2023-07-25T18:17:59.780Z,17.00
2023-07-25T18:20:29.415Z,16.90
2023-07-25T18:23:05.922Z,16.90
2023-07-25T18:25:35.188Z,16.90
2023-07-25T18:28:17.019Z,16.90
2023-07-25T18:30:46.849Z,16.90
2023-07-25T18:33:20.532Z,16.90
2023-07-25T18:35:49.456Z,16.90
2023-07-25T18:38:30.668Z,16.90
2023-07-25T18:40:59.272Z,16.80
2023-07-25T18:43:39.224Z,16.70
2023-07-25T18:46:07.573Z,16.80
2023-07-25T18:51:35.551Z,16.60
2023-07-25T18:54:04.501Z,16.70
2023-07-25T18:56:51.331Z,16.60
2023-07-25T18:59:22.917Z,16.70
2023-07-25T19:01:52.503Z,16.50
2023-07-25T19:04:20.809Z,16.60
2023-07-25T19:06:51.375Z,16.50
2023-07-25T19:09:21.532Z,16.40
2023-07-25T19:11:52.176Z,16.50
2023-07-25T19:14:22.534Z,16.40
2023-07-25T19:16:50.985Z,16.40
2023-07-25T19:19:19.250Z,16.40
2023-07-25T19:21:53.539Z,16.50
2023-07-25T19:24:22.554Z,16.50
2023-07-25T19:27:02.288Z,16.40
2023-07-25T19:29:32.380Z,16.40
2023-07-25T19:32:00.679Z,16.40
2023-07-25T19:34:40.632Z,16.30
2023-07-25T19:37:22.877Z,16.30
2023-07-25T19:39:55.553Z,16.30
2023-07-25T19:42:24.033Z,16.40
2023-07-25T19:44:53.854Z,16.40
2023-07-25T19:47:22.166Z,16.40
2023-07-25T19:49:54.278Z,16.40
2023-07-25T19:52:22.703Z,16.40
2023-07-25T19:54:52.454Z,16.30
2023-07-25T19:57:22.255Z,16.30
2023-07-25T19:59:51.219Z,16.30
2023-07-25T20:02:23.743Z,16.30
2023-07-25T20:04:53.221Z,16.30
2023-07-25T20:07:24.065Z,16.30
2023-07-25T20:10:27.201Z,16.30
2023-07-25T20:12:55.666Z,16.40
2023-07-25T20:15:36.518Z,16.30
2023-07-25T20:18:06.506Z,16.20
2023-07-25T20:20:35.061Z,16.20
2023-07-25T20:23:03.540Z,16.30
2023-07-25T20:25:35.518Z,16.30
2023-07-25T20:28:03.673Z,16.30
2023-07-25T20:30:32.184Z,16.30
2023-07-25T20:33:00.417Z,16.20
2023-07-25T20:35:34.665Z,16.30
2023-07-25T20:38:04.096Z,16.20
2023-07-25T20:40:32.526Z,16.30
2023-07-25T20:43:01.708Z,16.30
2023-07-25T20:45:31.220Z,16.20
2023-07-25T20:47:59.584Z,16.30
2023-07-25T20:50:31.431Z,16.20
2023-07-25T20:53:03.382Z,16.20
2023-07-25T20:55:31.525Z,16.20
2023-07-25T20:57:59.760Z,16.20
2023-07-25T21:00:28.178Z,16.20
2023-07-25T21:02:56.597Z,16.20
2023-07-25T21:05:24.960Z,16.10
2023-07-25T21:07:54.501Z,16.00
2023-07-25T21:10:23.068Z,16.00
2023-07-25T21:12:51.519Z,16.10
2023-07-25T21:15:19.780Z,16.10
2023-07-25T21:17:55.627Z,16.10
2023-07-25T21:20:31.756Z,16.10
2023-07-25T21:23:01.280Z,16.00
2023-07-25T21:25:29.686Z,16.00
2023-07-25T21:27:58.102Z,16.00
2023-07-25T21:30:28.872Z,16.10
2023-07-25T21:32:58.935Z,16.00
2023-07-25T21:35:27.633Z,16.00
2023-07-25T21:37:56.598Z,16.00
2023-07-25T21:40:26.822Z,16.00
2023-07-25T21:42:55.316Z,15.90
2023-07-25T21:45:24.104Z,15.90
2023-07-25T21:47:52.693Z,15.80
2023-07-25T21:50:21.116Z,15.70
2023-07-25T21:52:49.650Z,15.70
2023-07-25T21:55:18.031Z,15.60
2023-07-25T21:57:48.299Z,15.60
2023-07-25T22:00:16.847Z,15.60
2023-07-25T22:02:45.343Z,15.50
2023-07-25T22:05:17.825Z,15.40
2023-07-25T22:07:48.949Z,15.50
2023-07-25T22:10:20.217Z,15.60
2023-07-25T22:12:52.736Z,15.60
2023-07-25T22:15:21.646Z,15.50
2023-07-25T22:17:50.059Z,15.50
2023-07-25T22:20:19.661Z,15.50
2023-07-25T22:22:48.094Z,15.50
2023-07-25T22:25:16.497Z,15.60
2023-07-25T22:27:45.064Z,15.50
2023-07-25T22:30:15.996Z,15.60
2023-07-25T22:32:44.703Z,15.50
2023-07-25T22:35:13.427Z,15.50
2023-07-25T22:37:41.685Z,15.40
2023-07-25T22:40:10.727Z,15.40
2023-07-25T22:42:39.006Z,15.40
2023-07-25T22:45:08.206Z,15.30
2023-07-25T22:47:42.823Z,15.20
2023-07-25T22:50:18.280Z,15.20
2023-07-25T22:52:48.119Z,15.20
2023-07-25T22:55:19.937Z,15.20
2023-07-25T22:57:48.181Z,15.30
2023-07-25T23:00:17.867Z,15.30
2023-07-25T23:02:48.316Z,15.30
2023-07-25T23:05:17.513Z,15.30
2023-07-25T23:07:45.905Z,15.30
2023-07-25T23:10:14.465Z,15.30
2023-07-25T23:12:44.211Z,15.20
2023-07-25T23:15:14.575Z,15.20
2023-07-25T23:17:45.001Z,15.30
2023-07-25T23:20:15.923Z,15.30
2023-07-25T23:22:45.358Z,15.30
2023-07-25T23:25:13.989Z,15.30
2023-07-25T23:27:46.340Z,15.40
2023-07-25T23:30:14.994Z,15.30
2023-07-25T23:32:44.264Z,15.20
2023-07-25T23:35:12.752Z,15.30
2023-07-25T23:37:42.832Z,15.40
2023-07-25T23:40:13.206Z,15.40
2023-07-25T23:42:41.994Z,15.40
2023-07-25T23:45:11.484Z,15.30
2023-07-25T23:47:39.832Z,15.30
2023-07-25T23:50:09.009Z,15.30
2023-07-25T23:52:37.790Z,15.20
2023-07-25T23:55:10.425Z,15.20
2023-07-25T23:57:39.701Z,15.10
